Terminal Aerodrome Forecast
Issued by NWS

Home | Current Version | Previous Version | Text Only | Print | Product List | Glossary On
Versions: 1 2 3 4 5 6 7 8 9 10 11 12 13 14 15 16 17 18 19 20 21 22 23 24 25 26
076
FTPQ31 PGUM 212103 AAC
TAFKMJ
TAF AMD
PKMJ 212103Z 2121/2218 17010KT P6SM SHRA SCT012 BKN045 OVC090
      TEMPO 2122/2202 VRB12G22KT 3SM +SHRA SCT012 OVC030
     FM220500 14008KT P6SM VCSH SCT015 SCT045 BKN110=

USA.gov is the U.S. government's official web portal to all federal, state and local government web resources and services.